sensor_id;sensor_type;location;lat;lon;timestamp;pressure;altitude;pressure_sealevel;temperature;humidity
20622;BME280;10470;42.670;23.354;2023-03-26T00:01:18;94345.63;;;10.91;100.00
20622;BME280;10470;42.670;23.354;2023-03-26T00:03:46;94343.38;;;10.89;100.00
20622;BME280;10470;42.670;23.354;2023-03-26T00:06:19;94342.03;;;10.85;100.00
20622;BME280;10470;42.670;23.354;2023-03-26T00:08:45;94345.81;;;10.87;100.00
20622;BME280;10470;42.670;23.354;2023-03-26T00:11:14;94361.13;;;10.85;100.00
20622;BME280;10470;42.670;23.354;2023-03-26T00:13:40;94344.97;;;10.72;100.00
20622;BME280;10470;42.670;23.354;2023-03-26T00:16:09;94344.06;;;10.66;100.00
20622;BME280;10470;42.670;23.354;2023-03-26T00:18:35;94340.25;;;10.73;100.00
20622;BME280;10470;42.670;23.354;2023-03-26T00:21:04;94326.81;;;10.60;100.00
20622;BME280;10470;42.670;23.354;2023-03-26T00:23:31;94323.78;;;10.67;100.00
20622;BME280;10470;42.670;23.354;2023-03-26T00:25:58;94322.88;;;10.61;100.00
20622;BME280;10470;42.670;23.354;2023-03-26T00:28:25;94309.97;;;10.70;100.00
20622;BME280;10470;42.670;23.354;2023-03-26T00:30:59;94328.53;;;10.48;100.00
20622;BME280;10470;42.670;23.354;2023-03-26T00:33:26;94326.38;;;10.52;100.00
20622;BME280;10470;42.670;23.354;2023-03-26T00:35:56;94314.84;;;10.66;100.00
20622;BME280;10470;42.670;23.354;2023-03-26T00:38:24;94316.53;;;10.64;100.00
20622;BME280;10470;42.670;23.354;2023-03-26T00:40:50;94316.22;;;10.62;100.00
20622;BME280;10470;42.670;23.354;2023-03-26T00:43:20;94319.84;;;10.68;100.00
20622;BME280;10470;42.670;23.354;2023-03-26T00:45:51;94311.84;;;10.64;100.00
20622;BME280;10470;42.670;23.354;2023-03-26T00:48:19;94310.59;;;10.65;100.00
20622;BME280;10470;42.670;23.354;2023-03-26T00:50:46;94315.59;;;10.67;100.00
20622;BME280;10470;42.670;23.354;2023-03-26T00:53:13;94317.59;;;10.66;100.00
20622;BME280;10470;42.670;23.354;2023-03-26T00:55:39;94308.63;;;10.66;100.00
20622;BME280;10470;42.670;23.354;2023-03-26T00:58:06;94313.63;;;10.67;100.00
20622;BME280;10470;42.670;23.354;2023-03-26T01:00:37;94324.84;;;10.69;100.00
20622;BME280;10470;42.670;23.354;2023-03-26T01:03:03;94313.81;;;10.64;100.00
20622;BME280;10470;42.670;23.354;2023-03-26T01:05:56;94303.53;;;10.59;100.00
20622;BME280;10470;42.670;23.354;2023-03-26T01:08:44;94311.78;;;10.74;100.00
20622;BME280;10470;42.670;23.354;2023-03-26T01:11:23;94325.25;;;10.77;100.00
20622;BME280;10470;42.670;23.354;2023-03-26T01:14:00;94328.75;;;10.78;100.00
20622;BME280;10470;42.670;23.354;2023-03-26T01:16:40;94322.97;;;10.85;100.00
20622;BME280;10470;42.670;23.354;2023-03-26T01:19:16;94337.66;;;10.78;100.00
20622;BME280;10470;42.670;23.354;2023-03-26T01:21:44;94336.91;;;10.78;100.00
20622;BME280;10470;42.670;23.354;2023-03-26T01:24:11;94336.03;;;10.71;100.00
20622;BME280;10470;42.670;23.354;2023-03-26T01:27:03;94339.38;;;10.66;100.00
20622;BME280;10470;42.670;23.354;2023-03-26T01:40:36;94342.53;;;10.74;100.00
20622;BME280;10470;42.670;23.354;2023-03-26T01:45:50;94347.75;;;10.44;100.00
20622;BME280;10470;42.670;23.354;2023-03-26T01:48:16;94338.19;;;10.49;100.00
20622;BME280;10470;42.670;23.354;2023-03-26T01:50:42;94341.38;;;10.47;100.00
20622;BME280;10470;42.670;23.354;2023-03-26T01:53:10;94343.47;;;10.53;100.00
20622;BME280;10470;42.670;23.354;2023-03-26T01:55:52;94358.75;;;10.59;100.00
20622;BME280;10470;42.670;23.354;2023-03-26T02:03:36;94345.47;;;10.52;100.00
20622;BME280;10470;42.670;23.354;2023-03-26T02:06:09;94349.53;;;10.47;100.00
20622;BME280;10470;42.670;23.354;2023-03-26T02:09:07;94344.25;;;10.44;100.00
20622;BME280;10470;42.670;23.354;2023-03-26T02:11:34;94352.28;;;10.47;100.00
20622;BME280;10470;42.670;23.354;2023-03-26T02:14:03;94339.44;;;10.39;100.00
20622;BME280;10470;42.670;23.354;2023-03-26T02:16:29;94345.50;;;10.34;100.00
20622;BME280;10470;42.670;23.354;2023-03-26T02:18:55;94348.84;;;10.28;100.00
20622;BME280;10470;42.670;23.354;2023-03-26T02:21:24;94347.13;;;10.22;100.00
20622;BME280;10470;42.670;23.354;2023-03-26T02:23:55;94351.81;;;10.21;100.00
20622;BME280;10470;42.670;23.354;2023-03-26T02:26:38;94337.47;;;10.12;100.00
20622;BME280;10470;42.670;23.354;2023-03-26T02:29:04;94337.47;;;10.12;100.00
20622;BME280;10470;42.670;23.354;2023-03-26T02:31:30;94339.16;;;10.09;100.00
20622;BME280;10470;42.670;23.354;2023-03-26T02:33:55;94337.66;;;9.99;100.00
20622;BME280;10470;42.670;23.354;2023-03-26T02:36:22;94336.59;;;9.96;100.00
20622;BME280;10470;42.670;23.354;2023-03-26T02:38:51;94349.56;;;10.11;100.00
20622;BME280;10470;42.670;23.354;2023-03-26T02:41:17;94339.88;;;10.19;100.00
20622;BME280;10470;42.670;23.354;2023-03-26T02:43:43;94355.59;;;10.24;100.00
20622;BME280;10470;42.670;23.354;2023-03-26T02:46:08;94351.69;;;10.25;100.00
20622;BME280;10470;42.670;23.354;2023-03-26T02:48:34;94355.91;;;10.17;100.00
20622;BME280;10470;42.670;23.354;2023-03-26T02:51:03;94357.44;;;10.09;100.00
20622;BME280;10470;42.670;23.354;2023-03-26T02:53:29;94364.53;;;10.06;100.00
20622;BME280;10470;42.670;23.354;2023-03-26T02:55:56;94363.34;;;10.07;100.00
20622;BME280;10470;42.670;23.354;2023-03-26T02:58:21;94365.28;;;9.88;100.00
20622;BME280;10470;42.670;23.354;2023-03-26T03:00:50;94371.78;;;9.91;100.00
20622;BME280;10470;42.670;23.354;2023-03-26T03:03:20;94365.88;;;9.83;100.00
20622;BME280;10470;42.670;23.354;2023-03-26T03:05:49;94377.09;;;9.85;100.00
20622;BME280;10470;42.670;23.354;2023-03-26T03:08:20;94370.13;;;9.84;100.00
20622;BME280;10470;42.670;23.354;2023-03-26T03:13:25;94370.13;;;9.75;100.00
20622;BME280;10470;42.670;23.354;2023-03-26T03:15:51;94364.56;;;9.78;100.00
20622;BME280;10470;42.670;23.354;2023-03-26T03:18:16;94373.00;;;9.80;100.00
20622;BME280;10470;42.670;23.354;2023-03-26T03:20:42;94374.81;;;9.74;100.00
20622;BME280;10470;42.670;23.354;2023-03-26T03:23:08;94380.84;;;9.69;100.00
20622;BME280;10470;42.670;23.354;2023-03-26T03:25:34;94386.91;;;9.73;100.00
20622;BME280;10470;42.670;23.354;2023-03-26T03:27:59;94387.97;;;9.76;100.00
20622;BME280;10470;42.670;23.354;2023-03-26T03:30:25;94400.03;;;9.75;100.00
20622;BME280;10470;42.670;23.354;2023-03-26T03:32:50;94393.66;;;9.59;100.00
20622;BME280;10470;42.670;23.354;2023-03-26T03:35:16;94390.19;;;9.50;100.00
20622;BME280;10470;42.670;23.354;2023-03-26T03:37:42;94395.03;;;9.55;100.00
20622;BME280;10470;42.670;23.354;2023-03-26T03:40:08;94392.91;;;9.59;100.00
20622;BME280;10470;42.670;23.354;2023-03-26T03:42:35;94389.59;;;9.55;100.00
20622;BME280;10470;42.670;23.354;2023-03-26T03:45:02;94394.41;;;9.51;100.00
20622;BME280;10470;42.670;23.354;2023-03-26T03:47:28;94385.63;;;9.47;100.00
20622;BME280;10470;42.670;23.354;2023-03-26T03:49:53;94381.41;;;9.46;100.00
20622;BME280;10470;42.670;23.354;2023-03-26T03:52:21;94392.25;;;9.36;100.00
20622;BME280;10470;42.670;23.354;2023-03-26T03:54:46;94397.28;;;9.47;100.00
20622;BME280;10470;42.670;23.354;2023-03-26T03:57:12;94407.09;;;9.54;100.00
20622;BME280;10470;42.670;23.354;2023-03-26T03:59:40;94392.75;;;9.53;100.00
20622;BME280;10470;42.670;23.354;2023-03-26T04:02:05;94408.16;;;9.56;100.00
20622;BME280;10470;42.670;23.354;2023-03-26T04:04:31;94401.94;;;9.47;100.00
20622;BME280;10470;42.670;23.354;2023-03-26T04:06:57;94397.28;;;9.56;100.00
20622;BME280;10470;42.670;23.354;2023-03-26T04:09:23;94395.91;;;9.43;100.00
20622;BME280;10470;42.670;23.354;2023-03-26T04:11:48;94413.41;;;9.41;100.00
20622;BME280;10470;42.670;23.354;2023-03-26T04:14:15;94407.09;;;9.45;100.00
20622;BME280;10470;42.670;23.354;2023-03-26T04:16:40;94421.56;;;9.41;100.00
20622;BME280;10470;42.670;23.354;2023-03-26T04:19:06;94427.94;;;9.48;100.00
20622;BME280;10470;42.670;23.354;2023-03-26T04:21:32;94430.63;;;9.38;100.00
20622;BME280;10470;42.670;23.354;2023-03-26T04:24:03;94441.06;;;9.40;100.00
20622;BME280;10470;42.670;23.354;2023-03-26T04:26:29;94451.19;;;9.39;100.00
20622;BME280;10470;42.670;23.354;2023-03-26T04:28:58;94462.72;;;9.53;100.00
20622;BME280;10470;42.670;23.354;2023-03-26T04:31:25;94458.88;;;9.32;100.00
20622;BME280;10470;42.670;23.354;2023-03-26T04:33:58;94468.22;;;9.31;100.00
20622;BME280;10470;42.670;23.354;2023-03-26T04:36:30;94471.09;;;9.36;100.00
20622;BME280;10470;42.670;23.354;2023-03-26T04:38:59;94481.28;;;9.45;100.00
20622;BME280;10470;42.670;23.354;2023-03-26T04:41:27;94470.72;;;9.47;100.00
20622;BME280;10470;42.670;23.354;2023-03-26T04:43:53;94488.38;;;9.52;100.00
20622;BME280;10470;42.670;23.354;2023-03-26T04:46:20;94483.03;;;9.39;100.00
20622;BME280;10470;42.670;23.354;2023-03-26T04:48:50;94490.50;;;9.48;100.00
20622;BME280;10470;42.670;23.354;2023-03-26T04:51:16;94485.81;;;9.48;100.00
20622;BME280;10470;42.670;23.354;2023-03-26T04:53:45;94488.03;;;9.40;100.00
20622;BME280;10470;42.670;23.354;2023-03-26T04:56:36;94491.88;;;9.52;100.00
20622;BME280;10470;42.670;23.354;2023-03-26T04:59:03;94487.53;;;9.64;100.00
20622;BME280;10470;42.670;23.354;2023-03-26T05:01:28;94488.00;;;9.72;100.00
20622;BME280;10470;42.670;23.354;2023-03-26T05:03:55;94484.38;;;9.66;100.00
20622;BME280;10470;42.670;23.354;2023-03-26T05:06:23;94486.28;;;9.56;100.00
20622;BME280;10470;42.670;23.354;2023-03-26T05:08:50;94479.84;;;9.62;100.00
20622;BME280;10470;42.670;23.354;2023-03-26T05:11:15;94493.72;;;9.65;100.00
20622;BME280;10470;42.670;23.354;2023-03-26T05:13:41;94494.66;;;9.71;100.00
20622;BME280;10470;42.670;23.354;2023-03-26T05:16:08;94509.50;;;9.79;100.00
20622;BME280;10470;42.670;23.354;2023-03-26T05:18:34;94515.09;;;9.84;100.00
20622;BME280;10470;42.670;23.354;2023-03-26T05:20:59;94514.66;;;9.86;100.00
20622;BME280;10470;42.670;23.354;2023-03-26T05:23:25;94508.00;;;9.87;100.00
20622;BME280;10470;42.670;23.354;2023-03-26T05:25:51;94514.06;;;9.91;100.00
20622;BME280;10470;42.670;23.354;2023-03-26T05:28:16;94521.34;;;9.94;100.00
20622;BME280;10470;42.670;23.354;2023-03-26T05:30:45;94531.16;;;9.92;100.00
20622;BME280;10470;42.670;23.354;2023-03-26T05:33:11;94520.91;;;10.14;100.00
20622;BME280;10470;42.670;23.354;2023-03-26T05:35:36;94513.59;;;9.93;100.00
20622;BME280;10470;42.670;23.354;2023-03-26T05:38:02;94524.81;;;9.95;100.00
20622;BME280;10470;42.670;23.354;2023-03-26T05:40:27;94517.44;;;10.14;100.00
20622;BME280;10470;42.670;23.354;2023-03-26T05:42:53;94523.34;;;10.21;100.00
20622;BME280;10470;42.670;23.354;2023-03-26T05:45:19;94525.00;;;10.10;100.00
20622;BME280;10470;42.670;23.354;2023-03-26T05:47:46;94522.28;;;10.10;100.00
20622;BME280;10470;42.670;23.354;2023-03-26T05:50:14;94523.91;;;9.89;100.00
20622;BME280;10470;42.670;23.354;2023-03-26T05:52:40;94521.78;;;9.93;100.00
20622;BME280;10470;42.670;23.354;2023-03-26T05:55:05;94536.88;;;9.84;100.00
20622;BME280;10470;42.670;23.354;2023-03-26T05:57:32;94532.91;;;9.76;100.00
20622;BME280;10470;42.670;23.354;2023-03-26T06:00:00;94526.88;;;9.81;100.00
20622;BME280;10470;42.670;23.354;2023-03-26T06:02:25;94507.69;;;9.85;100.00
20622;BME280;10470;42.670;23.354;2023-03-26T06:04:51;94511.41;;;10.10;100.00
20622;BME280;10470;42.670;23.354;2023-03-26T06:07:17;94518.03;;;10.09;100.00
20622;BME280;10470;42.670;23.354;2023-03-26T06:09:43;94519.41;;;10.13;100.00
20622;BME280;10470;42.670;23.354;2023-03-26T06:12:09;94521.69;;;10.15;100.00
20622;BME280;10470;42.670;23.354;2023-03-26T06:14:35;94519.56;;;10.19;100.00
20622;BME280;10470;42.670;23.354;2023-03-26T06:17:01;94507.59;;;10.16;100.00
20622;BME280;10470;42.670;23.354;2023-03-26T06:19:27;94521.69;;;10.24;100.00
20622;BME280;10470;42.670;23.354;2023-03-26T06:21:52;94519.25;;;10.07;100.00
20622;BME280;10470;42.670;23.354;2023-03-26T06:24:18;94528.03;;;10.21;100.00
20622;BME280;10470;42.670;23.354;2023-03-26T06:26:45;94527.63;;;10.32;100.00
20622;BME280;10470;42.670;23.354;2023-03-26T06:29:11;94526.22;;;10.27;100.00
20622;BME280;10470;42.670;23.354;2023-03-26T06:31:37;94518.56;;;10.35;100.00
20622;BME280;10470;42.670;23.354;2023-03-26T06:34:02;94517.66;;;10.47;100.00
20622;BME280;10470;42.670;23.354;2023-03-26T06:36:28;94529.03;;;10.45;100.00
20622;BME280;10470;42.670;23.354;2023-03-26T06:38:53;94523.56;;;10.55;100.00
20622;BME280;10470;42.670;23.354;2023-03-26T06:41:19;94518.44;;;10.84;100.00
20622;BME280;10470;42.670;23.354;2023-03-26T06:43:44;94520.84;;;10.82;100.00
20622;BME280;10470;42.670;23.354;2023-03-26T06:46:10;94531.59;;;10.86;100.00
20622;BME280;10470;42.670;23.354;2023-03-26T06:48:35;94528.53;;;11.11;100.00
20622;BME280;10470;42.670;23.354;2023-03-26T06:51:01;94526.56;;;11.12;100.00
20622;BME280;10470;42.670;23.354;2023-03-26T06:53:26;94536.09;;;11.07;100.00
20622;BME280;10470;42.670;23.354;2023-03-26T06:55:52;94531.75;;;11.01;100.00
20622;BME280;10470;42.670;23.354;2023-03-26T06:58:19;94548.38;;;11.12;100.00
20622;BME280;10470;42.670;23.354;2023-03-26T07:00:44;94546.91;;;10.92;100.00
20622;BME280;10470;42.670;23.354;2023-03-26T07:03:10;94548.69;;;11.05;100.00
20622;BME280;10470;42.670;23.354;2023-03-26T07:05:36;94568.66;;;11.20;100.00
20622;BME280;10470;42.670;23.354;2023-03-26T07:08:01;94573.84;;;10.90;100.00
20622;BME280;10470;42.670;23.354;2023-03-26T07:10:27;94574.28;;;10.89;100.00
20622;BME280;10470;42.670;23.354;2023-03-26T07:12:52;94561.25;;;11.02;100.00
20622;BME280;10470;42.670;23.354;2023-03-26T07:15:18;94560.06;;;10.94;100.00
20622;BME280;10470;42.670;23.354;2023-03-26T07:17:44;94563.22;;;11.29;100.00
20622;BME280;10470;42.670;23.354;2023-03-26T07:20:10;94555.25;;;11.59;100.00
20622;BME280;10470;42.670;23.354;2023-03-26T07:22:35;94553.44;;;11.65;100.00
20622;BME280;10470;42.670;23.354;2023-03-26T07:25:01;94548.59;;;11.60;100.00
20622;BME280;10470;42.670;23.354;2023-03-26T07:30:14;94547.84;;;11.50;100.00
20622;BME280;10470;42.670;23.354;2023-03-26T07:33:04;94543.56;;;11.58;100.00
20622;BME280;10470;42.670;23.354;2023-03-26T07:35:39;94544.28;;;11.87;100.00
20622;BME280;10470;42.670;23.354;2023-03-26T07:41:08;94548.25;;;11.67;100.00
20622;BME280;10470;42.670;23.354;2023-03-26T07:46:27;94546.06;;;11.90;100.00
20622;BME280;10470;42.670;23.354;2023-03-26T07:48:54;94552.47;;;11.87;100.00
20622;BME280;10470;42.670;23.354;2023-03-26T07:51:22;94552.50;;;12.11;100.00
20622;BME280;10470;42.670;23.354;2023-03-26T07:53:48;94552.28;;;12.23;100.00
20622;BME280;10470;42.670;23.354;2023-03-26T07:56:16;94548.91;;;12.05;100.00
20622;BME280;10470;42.670;23.354;2023-03-26T07:59:02;94544.03;;;12.33;100.00
20622;BME280;10470;42.670;23.354;2023-03-26T08:06:59;94541.34;;;12.23;100.00
20622;BME280;10470;42.670;23.354;2023-03-26T08:12:43;94542.63;;;12.37;100.00
20622;BME280;10470;42.670;23.354;2023-03-26T08:15:21;94530.13;;;12.70;100.00
20622;BME280;10470;42.670;23.354;2023-03-26T08:18:03;94542.00;;;12.66;100.00
20622;BME280;10470;42.670;23.354;2023-03-26T08:29:19;94542.16;;;12.39;100.00
20622;BME280;10470;42.670;23.354;2023-03-26T08:31:48;94553.56;;;12.61;100.00
20622;BME280;10470;42.670;23.354;2023-03-26T08:34:14;94551.41;;;12.89;96.84
20622;BME280;10470;42.670;23.354;2023-03-26T08:36:39;94551.44;;;12.80;98.35
20622;BME280;10470;42.670;23.354;2023-03-26T08:39:05;94554.06;;;13.14;97.33
20622;BME280;10470;42.670;23.354;2023-03-26T08:48:15;94546.72;;;12.81;100.00
20622;BME280;10470;42.670;23.354;2023-03-26T08:59:41;94541.25;;;13.64;98.30
20622;BME280;10470;42.670;23.354;2023-03-26T09:05:42;94551.09;;;13.71;94.40
20622;BME280;10470;42.670;23.354;2023-03-26T09:11:09;94547.72;;;13.46;89.19
20622;BME280;10470;42.670;23.354;2023-03-26T09:13:44;94545.81;;;13.38;85.88
20622;BME280;10470;42.670;23.354;2023-03-26T09:41:31;94519.75;;;14.07;78.31
20622;BME280;10470;42.670;23.354;2023-03-26T09:50:36;94520.16;;;14.00;73.89
20622;BME280;10470;42.670;23.354;2023-03-26T09:56:07;94512.28;;;14.08;75.94
20622;BME280;10470;42.670;23.354;2023-03-26T09:59:07;94516.63;;;14.14;75.55
20622;BME280;10470;42.670;23.354;2023-03-26T10:13:29;94500.78;;;14.04;70.03
20622;BME280;10470;42.670;23.354;2023-03-26T10:16:17;94481.97;;;14.52;70.39
20622;BME280;10470;42.670;23.354;2023-03-26T10:18:51;94488.69;;;14.51;68.20
20622;BME280;10470;42.670;23.354;2023-03-26T10:21:45;94481.91;;;14.47;65.43
20622;BME280;10470;42.670;23.354;2023-03-26T10:30:41;94476.13;;;14.45;64.82
20622;BME280;10470;42.670;23.354;2023-03-26T10:32:50;94463.38;;;14.82;62.33
20622;BME280;10470;42.670;23.354;2023-03-26T10:35:25;94455.94;;;14.62;60.93
20622;BME280;10470;42.670;23.354;2023-03-26T10:41:02;94454.06;;;15.26;57.16
20622;BME280;10470;42.670;23.354;2023-03-26T10:46:38;94446.50;;;15.16;58.37
20622;BME280;10470;42.670;23.354;2023-03-26T10:49:43;94439.69;;;15.69;58.14
20622;BME280;10470;42.670;23.354;2023-03-26T10:52:20;94442.19;;;16.15;57.36
20622;BME280;10470;42.670;23.354;2023-03-26T10:54:56;94441.47;;;15.72;55.81
20622;BME280;10470;42.670;23.354;2023-03-26T11:02:43;94430.16;;;15.64;54.06
20622;BME280;10470;42.670;23.354;2023-03-26T11:05:25;94425.00;;;15.46;53.68
20622;BME280;10470;42.670;23.354;2023-03-26T11:08:08;94436.63;;;16.58;52.92
20622;BME280;10470;42.670;23.354;2023-03-26T11:10:46;94438.97;;;16.94;52.12
20622;BME280;10470;42.670;23.354;2023-03-26T11:21:33;94422.47;;;16.94;48.02
20622;BME280;10470;42.670;23.354;2023-03-26T11:27:06;94433.50;;;17.05;46.85
20622;BME280;10470;42.670;23.354;2023-03-26T11:29:51;94432.00;;;17.15;46.46
20622;BME280;10470;42.670;23.354;2023-03-26T11:32:26;94417.09;;;16.56;46.23
20622;BME280;10470;42.670;23.354;2023-03-26T11:37:41;94407.97;;;17.33;45.20
20622;BME280;10470;42.670;23.354;2023-03-26T11:40:19;94412.44;;;17.75;45.47
20622;BME280;10470;42.670;23.354;2023-03-26T11:42:52;94409.66;;;17.98;45.53
20622;BME280;10470;42.670;23.354;2023-03-26T11:45:23;94400.25;;;18.40;45.42
20622;BME280;10470;42.670;23.354;2023-03-26T11:48:04;94396.06;;;18.22;44.88
20622;BME280;10470;42.670;23.354;2023-03-26T11:50:35;94396.44;;;18.96;44.17
20622;BME280;10470;42.670;23.354;2023-03-26T11:53:17;94385.31;;;18.07;42.60
20622;BME280;10470;42.670;23.354;2023-03-26T11:55:56;94368.47;;;18.22;41.72
20622;BME280;10470;42.670;23.354;2023-03-26T11:58:49;94366.97;;;19.40;41.37
20622;BME280;10470;42.670;23.354;2023-03-26T12:01:23;94363.06;;;18.47;41.43
20622;BME280;10470;42.670;23.354;2023-03-26T12:04:09;94353.63;;;19.74;41.47
20622;BME280;10470;42.670;23.354;2023-03-26T12:06:38;94356.78;;;18.99;41.29
20622;BME280;10470;42.670;23.354;2023-03-26T12:09:10;94348.53;;;19.54;40.96
20622;BME280;10470;42.670;23.354;2023-03-26T12:11:40;94346.53;;;18.47;41.37
20622;BME280;10470;42.670;23.354;2023-03-26T12:14:06;94348.13;;;18.72;41.56
20622;BME280;10470;42.670;23.354;2023-03-26T12:16:33;94347.44;;;19.32;40.12
20622;BME280;10470;42.670;23.354;2023-03-26T12:19:04;94349.09;;;18.81;40.05
20622;BME280;10470;42.670;23.354;2023-03-26T12:21:45;94339.63;;;19.06;39.69
20622;BME280;10470;42.670;23.354;2023-03-26T12:29:49;94319.75;;;20.12;38.36
20622;BME280;10470;42.670;23.354;2023-03-26T12:32:15;94305.72;;;19.60;37.50
20622;BME280;10470;42.670;23.354;2023-03-26T12:34:41;94314.22;;;20.12;37.07
20622;BME280;10470;42.670;23.354;2023-03-26T12:37:32;94301.81;;;20.56;36.98
20622;BME280;10470;42.670;23.354;2023-03-26T12:40:26;94288.28;;;23.05;34.96
20622;BME280;10470;42.670;23.354;2023-03-26T12:43:01;94294.69;;;22.45;34.08
20622;BME280;10470;42.670;23.354;2023-03-26T12:45:38;94303.22;;;22.81;33.73
20622;BME280;10470;42.670;23.354;2023-03-26T12:48:05;94296.63;;;21.30;33.10
20622;BME280;10470;42.670;23.354;2023-03-26T12:56:19;94294.09;;;21.99;31.68
20622;BME280;10470;42.670;23.354;2023-03-26T13:06:57;94285.06;;;23.43;30.32
20622;BME280;10470;42.670;23.354;2023-03-26T13:15:22;94279.03;;;23.60;28.67
20622;BME280;10470;42.670;23.354;2023-03-26T13:17:56;94287.28;;;22.00;29.13
20622;BME280;10470;42.670;23.354;2023-03-26T13:23:22;94257.78;;;23.42;28.66
20622;BME280;10470;42.670;23.354;2023-03-26T13:26:04;94264.47;;;23.18;28.26
20622;BME280;10470;42.670;23.354;2023-03-26T13:31:08;94279.50;;;23.43;27.76
20622;BME280;10470;42.670;23.354;2023-03-26T13:39:16;94269.25;;;23.67;28.03
20622;BME280;10470;42.670;23.354;2023-03-26T13:44:59;94261.16;;;21.55;29.50
20622;BME280;10470;42.670;23.354;2023-03-26T13:47:30;94272.91;;;21.03;29.93
20622;BME280;10470;42.670;23.354;2023-03-26T13:50:06;94264.03;;;22.03;29.40
20622;BME280;10470;42.670;23.354;2023-03-26T13:52:48;94261.97;;;21.37;29.24
20622;BME280;10470;42.670;23.354;2023-03-26T13:55:36;94258.25;;;20.76;29.94
20622;BME280;10470;42.670;23.354;2023-03-26T13:58:15;94252.88;;;20.64;30.55
20622;BME280;10470;42.670;23.354;2023-03-26T14:00:58;94240.53;;;21.11;30.77
20622;BME280;10470;42.670;23.354;2023-03-26T14:03:33;94252.09;;;21.68;30.17
20622;BME280;10470;42.670;23.354;2023-03-26T14:06:58;94256.34;;;21.43;30.08
20622;BME280;10470;42.670;23.354;2023-03-26T14:09:19;94253.06;;;20.99;30.29
20622;BME280;10470;42.670;23.354;2023-03-26T14:17:05;94231.41;;;20.00;29.70
20622;BME280;10470;42.670;23.354;2023-03-26T14:22:31;94234.25;;;21.24;29.56
20622;BME280;10470;42.670;23.354;2023-03-26T14:42:02;94211.84;;;21.08;30.76
20622;BME280;10470;42.670;23.354;2023-03-26T14:47:20;94218.56;;;21.93;30.47
20622;BME280;10470;42.670;23.354;2023-03-26T14:52:51;94215.38;;;21.09;32.34
20622;BME280;10470;42.670;23.354;2023-03-26T14:55:48;94218.56;;;21.00;32.35
20622;BME280;10470;42.670;23.354;2023-03-26T15:01:12;94212.88;;;21.64;32.64
20622;BME280;10470;42.670;23.354;2023-03-26T15:31:58;94224.31;;;22.08;30.33
20622;BME280;10470;42.670;23.354;2023-03-26T15:37:05;94229.13;;;21.94;30.18
20622;BME280;10470;42.670;23.354;2023-03-26T15:42:40;94231.72;;;21.39;31.32
20622;BME280;10470;42.670;23.354;2023-03-26T15:47:58;94228.94;;;20.80;31.80
20622;BME280;10470;42.670;23.354;2023-03-26T15:53:42;94224.56;;;21.84;32.26
20622;BME280;10470;42.670;23.354;2023-03-26T15:59:12;94236.91;;;21.96;32.13
20622;BME280;10470;42.670;23.354;2023-03-26T16:04:21;94233.13;;;21.46;32.09
20622;BME280;10470;42.670;23.354;2023-03-26T16:07:01;94225.03;;;20.76;32.45
20622;BME280;10470;42.670;23.354;2023-03-26T16:09:52;94219.53;;;20.38;32.81
20622;BME280;10470;42.670;23.354;2023-03-26T16:12:44;94220.16;;;19.30;34.50
20622;BME280;10470;42.670;23.354;2023-03-26T16:15:28;94222.44;;;18.71;35.42
20622;BME280;10470;42.670;23.354;2023-03-26T16:23:50;94237.56;;;18.29;36.94
20622;BME280;10470;42.670;23.354;2023-03-26T16:29:20;94239.88;;;18.19;36.79
20622;BME280;10470;42.670;23.354;2023-03-26T16:32:25;94231.72;;;17.97;37.34
20622;BME280;10470;42.670;23.354;2023-03-26T16:34:56;94233.03;;;17.79;38.16
20622;BME280;10470;42.670;23.354;2023-03-26T16:45:25;94249.72;;;17.39;38.56
20622;BME280;10470;42.670;23.354;2023-03-26T17:05:04;94243.81;;;17.01;40.13
20622;BME280;10470;42.670;23.354;2023-03-26T17:07:37;94241.59;;;16.83;40.33
20622;BME280;10470;42.670;23.354;2023-03-26T17:13:10;94246.06;;;16.69;41.21
20622;BME280;10470;42.670;23.354;2023-03-26T17:20:56;94248.06;;;16.35;41.13
20622;BME280;10470;42.670;23.354;2023-03-26T17:29:20;94243.69;;;15.78;43.45
20622;BME280;10470;42.670;23.354;2023-03-26T17:42:28;94243.19;;;15.73;44.92
20622;BME280;10470;42.670;23.354;2023-03-26T17:44:58;94241.09;;;15.51;44.99
20622;BME280;10470;42.670;23.354;2023-03-26T17:47:30;94236.81;;;15.45;45.19
20622;BME280;10470;42.670;23.354;2023-03-26T17:50:00;94237.81;;;15.47;45.29
20622;BME280;10470;42.670;23.354;2023-03-26T17:52:54;94233.63;;;15.58;45.75
20622;BME280;10470;42.670;23.354;2023-03-26T17:55:23;94236.03;;;15.39;46.22
20622;BME280;10470;42.670;23.354;2023-03-26T17:57:57;94230.75;;;15.29;46.02
20622;BME280;10470;42.670;23.354;2023-03-26T18:00:30;94227.22;;;15.18;46.58
20622;BME280;10470;42.670;23.354;2023-03-26T18:03:07;94226.69;;;15.14;47.12
20622;BME280;10470;42.670;23.354;2023-03-26T18:05:38;94226.66;;;15.08;47.72
20622;BME280;10470;42.670;23.354;2023-03-26T18:16:20;94210.72;;;14.69;49.56
20622;BME280;10470;42.670;23.354;2023-03-26T18:19:01;94221.47;;;14.78;50.46
20622;BME280;10470;42.670;23.354;2023-03-26T18:21:30;94210.69;;;14.37;51.27
20622;BME280;10470;42.670;23.354;2023-03-26T18:23:57;94215.91;;;14.67;51.48
20622;BME280;10470;42.670;23.354;2023-03-26T18:26:36;94215.00;;;14.50;51.95
20622;BME280;10470;42.670;23.354;2023-03-26T18:29:34;94187.56;;;14.44;50.45
20622;BME280;10470;42.670;23.354;2023-03-26T18:34:32;94203.13;;;14.53;50.40
20622;BME280;10470;42.670;23.354;2023-03-26T18:37:09;94204.91;;;14.61;50.32
20622;BME280;10470;42.670;23.354;2023-03-26T18:39:40;94202.09;;;14.50;50.43
20622;BME280;10470;42.670;23.354;2023-03-26T18:42:16;94198.31;;;14.48;50.74